• Join FlightAware (Why Join?)
  • Login
  • US Flag 
07:30PM EDT


 

Airport Tracker/Info


-or-


 

Live Flight TrackerFlight Track Log ✈ N770NC ✈ 14-Jun-2013 ✈ KIAD - KATL

Flight Track Log - Related Links

Times and Time Zones

All times are in EDT time to prevent confusion due to time zone crossing. See the N770NC flight status page for this flight to view local times or setup timezone preferences in your user account.

Time Position Orientation Groundspeed Altitude Reporting Facility
EDT Latitude Longitude Course Direction KTS MPH feet Rate Location/Type
02:41PM 38.8833 -77.6000 226° Southwest 250 288 3,800  Level Potomac TRACON
02:42PM 38.8167 -77.6500 210° Southwest 283 326 6,300 2,400 Climbing Potomac TRACON
02:43PM 38.5486 -77.6803 210° Southwest  Level FlightAware Approximate
02:43PM 38.7500 -77.6833 201° Southwest 297 342 8,700  Level Potomac TRACON
02:44PM 38.4755 -77.7701 230° Southwest  Level FlightAware Approximate
02:44PM 38.6667 -77.7333 205° Southwest 328 377 10,800  Level Potomac TRACON
02:45PM 38.4116 -77.8798 234° Southwest  Level FlightAware Approximate
02:45PM 38.5783 -77.8011 211° Southwest 346 398 12,300  Level Washington Center
02:46PM 38.3576 -77.9948 235° Southwest  Level FlightAware Approximate
02:46PM 38.4939 -77.8569 207° Southwest 361 415 14,000  Level Washington Center
02:47PM 38.4067 -77.9392 216° Southwest 381 438 16,400 2,220 Climbing Washington Center
02:48PM 38.3256 -78.0372 223° Southwest 397 457 18,400 1,980 Climbing Washington Center
02:49PM 38.2483 -78.1458 228° Southwest 407 468 20,400 1,680 Climbing Washington Center
02:50PM 38.1664 -78.2672 229° Southwest 423 487 21,800 1,320 Climbing Washington Center
02:51PM 38.0889 -78.3778 228° Southwest 429 494 23,100 1,080 Climbing Washington Center
02:52PM 38.0261 -78.4731 230° Southwest 429 494 24,000 1,020 Climbing Washington Center
02:53PM 37.9600 -78.6100 239° Southwest 424 488 25,200 1,140 Climbing Washington Center
02:54PM 37.9225 -78.7717 254° West 431 496 26,300 900 Climbing Washington Center
02:55PM 37.9206 -78.9217 269° West 431 496 27,000 840 Climbing Washington Center
02:56PM 37.9122 -79.0714 266° West 424 488 28,100 480 Climbing Washington Center
02:57PM 37.8478 -79.2078 239° Southwest 437 503 28,000 -60 Descending Washington Center
02:58PM 37.7486 -79.3081 219° Southwest 461 531 28,000 -60 Level Washington Center
02:59PM 37.6381 -79.4417 224° Southwest 493 567 27,900  Descending Washington Center
03:00PM 37.5483 -79.5708 229° Southwest 493 567 28,000  Climbing Washington Center
03:01PM 37.4714 -79.6897 231° Southwest 493 567 28,000  Level Washington Center
03:02PM 37.3789 -79.8258 229° Southwest 500 575 28,000  Level Washington Center
03:03PM 37.2844 -79.9564 228° Southwest 507 583 28,000  Level Washington Center
03:05PM 37.1092 -80.1792 225° Southwest 531 611 28,000  Level Atlanta Center
03:06PM 37.0044 -80.3064 224° Southwest 531 611 28,000  Level Atlanta Center
03:07PM 36.8942 -80.4467 226° Southwest 526 605 28,000  Level Atlanta Center
03:08PM 36.7956 -80.5731 226° Southwest 526 605 28,000  Level Atlanta Center
03:09PM 36.7067 -80.6753 223° Southwest 510 587 28,000  Level Atlanta Center
03:10PM 36.6078 -80.7958 224° Southwest 502 578 28,000  Level Atlanta Center
03:11PM 36.5083 -80.9083 222° Southwest 489 563 28,000  Level Atlanta Center
03:12PM 36.4047 -81.0181 220° Southwest 489 563 28,000  Level Atlanta Center
03:13PM 36.3094 -81.1300 223° Southwest 482 555 28,000  Level Atlanta Center
03:14PM 36.2142 -81.2464 225° Southwest 482 555 28,000  Level Atlanta Center
03:15PM 36.1147 -81.3683 225° Southwest 469 540 28,000  Level Atlanta Center
03:16PM 36.0253 -81.4789 225° Southwest 464 534 28,000  Level Atlanta Center
03:17PM 35.9275 -81.5872 222° Southwest 470 541 28,000  Level Atlanta Center
03:18PM 35.8272 -81.6978 222° Southwest 475 547 28,000  Level Atlanta Center
03:19PM 35.7336 -81.8131 225° Southwest 481 554 28,000  Level Atlanta Center
03:20PM 35.6356 -81.9333 225° Southwest 493 567 28,000  Level Atlanta Center
03:21PM 35.5331 -82.0508 223° Southwest 504 580 28,000  Level Atlanta Center
03:22PM 35.4411 -82.1703 227° Southwest 494 568 28,000 -660 Level Atlanta Center
03:23PM 35.3575 -82.2944 230° Southwest 486 559 26,700 -1,920 Descending Atlanta Center
03:24PM 35.2925 -82.4178 237° Southwest 460 529 24,200 -1,380 Descending Atlanta Center
03:25PM 35.2231 -82.5386 235° Southwest 447 514 24,000 -120 Descending Atlanta Center
03:26PM 35.1617 -82.6517 236° Southwest 447 514 24,000  Level Atlanta Center
03:27PM 35.0836 -82.7747 232° Southwest 454 522 24,000  Level Atlanta Center
03:28PM 34.9994 -82.8978 230° Southwest 467 537 24,000 -420 Level Atlanta Center
03:29PM 34.9086 -83.0106 226° Southwest 473 544 23,200 -540 Descending Atlanta Center
03:30PM 34.8217 -83.1178 225° Southwest 463 533 23,000 -60 Descending Atlanta Center
03:31PM 34.7183 -83.2478 226° Southwest 465 535 23,100  Climbing Atlanta Center
03:32PM 34.6375 -83.3469 225° Southwest 465 535 23,100 -840 Level Atlanta Center
03:33PM 34.5275 -83.4539 219° Southwest 465 535 21,500 -2,100 Descending Atlanta Center
03:34PM 34.4256 -83.5403 215° Southwest 458 527 18,900 -2,700 Descending Atlanta Center
03:35PM 34.3278 -83.6186 213° Southwest 441 507 16,200 -2,400 Descending Atlanta Center
03:36PM 34.2322 -83.7022 216° Southwest 434 499 14,100 -1,980 Descending Atlanta Center
03:37PM 34.1447 -83.7928 221° Southwest 428 493 12,300 -1,200 Descending Atlanta Center
03:38PM 34.0739 -83.8733 223° Southwest 383 441 11,800 -960 Descending Atlanta Center
03:39PM 34.0333 -83.9167 222° Southwest 315 362 10,800 -1,560 Descending Atlanta TRACON
03:40PM 33.9667 -83.9667 212° Southwest 312 359 9,400 -900 Descending Atlanta TRACON
03:41PM 33.8833 -83.9500 171° South 307 353 9,000 -300 Descending Atlanta TRACON
03:41PM 33.8506 -83.9589 193° South 300 345 9,000  Level Atlanta Center
03:42PM 33.7672 -83.9514 176° South 306 352 9,000 -900 Level Atlanta Center
03:43PM 33.6856 -83.9664 189° South 306 352 7,300 -1,380 Descending Atlanta Center
03:44PM 33.6439 -84.0464 238° Southwest 268 308 6,300 -1,020 Descending Atlanta Center
03:45PM 33.6294 -84.1286 258° West 234 269 5,300 -1,020 Descending Atlanta Center
03:46PM 33.6333 -84.1667 277° West 200 230 4,700 -1,080 Descending Atlanta TRACON